Time;durP1;ratioP1;P1;durP2;ratioP2;P2;SDS_P1;SDS_P2;PMS_P1;PMS_P2;Temp;Humidity;BMP_temperature;BMP_pressure;BME280_temperature;BME280_humidity;BME280_pressure;Samples;Min_cycle;Max_cycle;Signal;HPM_P1;HPM_P2
2022/12/24 00:00:23;;;;;;;88.13;58.42;;;;;;;2.93;100.00;99721.75;5035414;28;20071;-70
2022/12/24 00:02:49;;;;;;;91.70;58.10;;;;;;;2.51;100.00;99643.22;5053590;28;20124;-71
2022/12/24 00:05:16;;;;;;;80.97;54.08;;;;;;;2.41;100.00;99656.59;5052850;28;20128;-71
2022/12/24 00:07:42;;;;;;;81.13;52.95;;;;;;;2.37;100.00;99618.97;5053285;28;20044;-72
2022/12/24 00:10:08;;;;;;;79.82;54.08;;;;;;;2.80;100.00;99700.00;5052542;28;20045;-71
2022/12/24 00:12:33;;;;;;;82.47;53.33;;;;;;;2.16;100.00;99619.81;5052440;28;20123;-72
2022/12/24 00:14:58;;;;;;;81.97;52.78;;;;;;;2.44;100.00;99690.84;5052974;28;20112;-72
2022/12/24 00:17:24;;;;;;;74.97;51.40;;;;;;;2.54;100.00;99677.47;5053210;28;20550;-71
2022/12/24 00:19:49;;;;;;;83.78;54.17;;;;;;;2.34;100.00;99606.44;5053101;28;20543;-71
2022/12/24 00:22:15;;;;;;;81.32;52.78;;;;;;;2.79;100.00;99691.69;5052772;28;20075;-73
2022/12/24 00:24:40;;;;;;;75.55;49.20;;;;;;;2.40;100.00;99627.31;5034778;28;20074;-73
2022/12/24 00:27:06;;;;;;;72.22;49.05;;;;;;;2.17;100.00;99618.16;5052792;28;20036;-70
2022/12/24 00:29:32;;;;;;;66.32;47.40;;;;;;;2.15;100.00;99604.78;5052617;28;20029;-71
2022/12/24 00:31:57;;;;;;;72.13;47.33;;;;;;;2.54;100.00;99657.41;5052287;28;20275;-70
2022/12/24 00:34:23;;;;;;;66.80;45.67;;;;;;;2.70;100.00;99693.34;5052714;28;20119;-70
2022/12/24 00:36:49;;;;;;;75.55;51.08;;;;;;;2.25;100.00;99616.47;5034930;28;20033;-70
2022/12/24 00:39:15;;;;;;;75.78;49.83;;;;;;;2.39;100.00;99627.34;5034573;28;20033;-70
2022/12/24 00:41:51;;;;;;;73.57;50.25;;;;;;;2.69;100.00;99705.06;5052559;28;20098;-70
2022/12/24 00:44:17;;;;;;;79.63;51.10;;;;;;;2.70;100.00;99699.19;5052347;28;20033;-70
2022/12/24 00:46:42;;;;;;;79.65;51.70;;;;;;;2.13;100.00;99634.03;5051718;28;20037;-70
2022/12/24 00:49:08;;;;;;;77.07;51.30;;;;;;;2.13;100.00;99621.50;5051972;28;20037;-70
2022/12/24 00:51:34;;;;;;;77.78;51.60;;;;;;;2.28;100.00;99626.50;5052070;28;20130;-70
2022/12/24 00:54:00;;;;;;;84.63;54.38;;;;;;;2.60;100.00;99685.00;5051696;28;20037;-70
2022/12/24 00:56:26;;;;;;;88.90;55.10;;;;;;;2.40;100.00;99680.00;5051745;28;20510;-69
2022/12/24 00:58:52;;;;;;;82.35;54.33;;;;;;;1.89;100.00;99603.94;5033282;28;20056;-68
2022/12/24 01:01:18;;;;;;;82.93;53.88;;;;;;;2.10;100.00;99672.44;5051623;28;20047;-71
2022/12/24 01:03:43;;;;;;;77.97;51.55;;;;;;;2.22;100.00;99679.16;5051435;28;20099;-70
2022/12/24 01:06:19;;;;;;;83.45;57.03;;;;;;;2.34;100.00;99682.50;5050861;28;20083;-70
2022/12/24 01:08:45;;;;;;;99.78;71.40;;;;;;;2.19;100.00;99692.53;5051652;28;20510;-71
2022/12/24 01:11:11;;;;;;;88.38;62.28;;;;;;;2.20;100.00;99693.38;5034060;28;20064;-69
2022/12/24 01:13:38;;;;;;;91.18;60.45;;;;;;;1.50;100.00;99562.16;5034118;28;20045;-70
2022/12/24 01:16:13;;;;;;;82.43;55.78;;;;;;;2.19;100.00;99679.16;5051598;28;20072;-71
2022/12/24 01:18:38;;;;;;;73.90;47.00;;;;;;;1.92;100.00;99682.47;5051914;28;20091;-71
2022/12/24 01:21:04;;;;;;;64.15;43.90;;;;;;;2.24;100.00;99680.00;5052010;28;20068;-70
2022/12/24 01:23:30;;;;;;;67.70;44.88;;;;;;;2.02;100.00;99680.81;5051659;28;20102;-70
2022/12/24 01:26:00;;;;;;;66.25;45.65;;;;;;;1.98;100.00;99687.47;5033510;28;20499;-71
2022/12/24 01:28:25;;;;;;;66.57;44.75;;;;;;;1.74;100.00;99610.59;5033523;28;20037;-70
2022/12/24 01:30:51;;;;;;;64.68;43.47;;;;;;;1.73;100.00;99590.56;5033893;28;20517;-71
2022/12/24 01:33:16;;;;;;;72.28;47.78;;;;;;;1.26;100.00;99534.59;5049441;28;20037;-70
2022/12/24 01:35:42;;;;;;;70.22;47.10;;;;;;;2.12;100.00;99655.75;5051179;28;20136;-70
2022/12/24 01:38:10;;;;;;;71.65;47.03;;;;;;;1.12;100.00;99518.72;5051033;28;20041;-70
2022/12/24 01:43:23;;;;;;;72.78;47.92;;;;;;;1.79;100.00;99628.16;5051223;28;20104;-70
2022/12/24 01:45:48;;;;;;;70.30;47.20;;;;;;;2.06;100.00;99649.91;5051270;28;20035;-70
2022/12/24 01:48:32;;;;;;;77.65;49.35;;;;;;;2.11;100.00;99640.72;5050808;28;20732;-69
2022/12/24 01:51:38;;;;;;;77.03;49.78;;;;;;;1.93;100.00;99638.19;5051185;28;20140;-70
2022/12/24 01:54:19;;;;;;;72.85;48.22;;;;;;;1.78;100.00;99644.03;5013775;28;20047;-70
2022/12/24 01:56:54;;;;;;;72.53;49.10;;;;;;;1.98;100.00;99621.50;5033237;28;20122;-70
2022/12/24 01:59:20;;;;;;;81.30;50.58;;;;;;;1.71;100.00;99628.16;5032684;28;20148;-71
2022/12/24 02:01:48;;;;;;;72.80;49.15;;;;;;;1.51;100.00;99547.16;5033549;28;20458;-70
2022/12/24 02:04:38;;;;;;;73.25;49.92;;;;;;;1.85;100.00;99643.19;5033704;28;20044;-70
2022/12/24 02:07:04;;;;;;;72.13;49.63;;;;;;;1.97;100.00;99633.19;5051263;28;20041;-71
2022/12/24 02:09:32;;;;;;;66.35;46.03;;;;;;;1.37;100.00;99551.28;5050609;28;20572;-71
2022/12/24 02:11:58;;;;;;;69.88;45.55;;;;;;;1.81;100.00;99643.19;5051033;28;20102;-70
2022/12/24 02:14:25;;;;;;;74.78;49.35;;;;;;;1.68;100.00;99613.09;5050291;28;20454;-71
2022/12/24 02:17:08;;;;;;;74.07;48.03;;;;;;;1.94;100.00;99615.63;5050383;28;20029;-71
2022/12/24 02:20:05;;;;;;;61.72;43.22;;;;;;;2.17;100.00;99623.16;5050101;28;20044;-71
2022/12/24 02:23:05;;;;;;;60.63;42.35;;;;;;;1.11;100.00;99480.31;5050172;28;20102;-70
2022/12/24 02:25:45;;;;;;;61.58;42.47;;;;;;;1.81;100.00;99618.97;5044402;28;20156;-70
2022/12/24 02:28:32;;;;;;;50.85;38.03;;;;;;;1.96;100.00;99620.66;5031251;28;20046;-71
2022/12/24 02:31:07;;;;;;;50.53;36.22;;;;;;;1.81;100.00;99613.13;5013124;28;20033;-70
2022/12/24 02:33:47;;;;;;;51.88;37.78;;;;;;;1.34;100.00;99533.78;5030678;28;20041;-70
2022/12/24 02:36:22;;;;;;;46.60;35.05;;;;;;;0.92;100.00;99510.31;5027354;28;20053;-70
2022/12/24 02:39:08;;;;;;;49.33;35.72;;;;;;;1.64;100.00;99623.94;5013054;28;20119;-70
2022/12/24 02:44:27;;;;;;;61.00;42.38;;;;;;;1.64;100.00;99546.31;5031195;28;20049;-70
2022/12/24 02:46:55;;;;;;;58.40;40.05;;;;;;;1.74;100.00;99635.66;5030782;28;20444;-71
2022/12/24 02:49:20;;;;;;;61.40;42.70;;;;;;;1.10;100.00;99481.19;5030766;28;20095;-72
2022/12/24 02:51:46;;;;;;;58.58;41.15;;;;;;;1.64;100.00;99621.44;5033836;28;20041;-70
2022/12/24 02:54:13;;;;;;;64.43;43.38;;;;;;;1.49;100.00;99548.81;5050268;28;20037;-70
2022/12/24 02:56:58;;;;;;;83.80;52.05;;;;;;;1.98;100.00;99611.47;5050431;28;20045;-70
2022/12/24 02:59:39;;;;;;;65.82;44.53;;;;;;;1.82;100.00;99629.84;5031811;28;20122;-70
2022/12/24 03:02:25;;;;;;;60.38;40.75;;;;;;;1.62;100.00;99537.97;5040997;28;20132;-70
2022/12/24 03:05:03;;;;;;;52.67;38.10;;;;;;;1.80;100.00;99611.47;5046684;28;20084;-70
2022/12/24 03:07:35;;;;;;;59.25;42.00;;;;;;;1.50;100.00;99622.25;5050177;28;20037;-71
2022/12/24 03:10:15;;;;;;;53.25;37.30;;;;;;;1.86;100.00;99619.84;5049983;28;20037;-70
2022/12/24 03:12:45;;;;;;;60.28;40.97;;;;;;;1.96;100.00;99610.66;5042389;28;20037;-71
2022/12/24 03:15:15;;;;;;;60.20;41.47;;;;;;;1.27;100.00;99557.09;5032170;28;20550;-70
2022/12/24 03:17:46;;;;;;;61.45;42.38;;;;;;;1.37;100.00;99557.97;5049470;28;20410;-72
2022/12/24 03:20:16;;;;;;;63.03;42.45;;;;;;;1.37;100.00;99542.94;5049948;28;20035;-70
2022/12/24 03:22:42;;;;;;;87.07;52.83;;;;;;;1.74;100.00;99597.28;5050100;28;20124;-70
2022/12/24 03:25:17;;;;;;;99.05;57.80;;;;;;;1.37;100.00;99541.28;5049863;28;20551;-70
2022/12/24 03:27:43;;;;;;;98.40;56.03;;;;;;;1.53;100.00;99572.19;5033974;28;20037;-70
2022/12/24 03:30:13;;;;;;;98.68;58.65;;;;;;;1.64;100.00;99615.63;5053533;28;20041;-70
2022/12/24 03:32:39;;;;;;;95.70;58.30;;;;;;;1.01;100.00;99551.19;5050942;28;20124;-70
2022/12/24 03:35:06;;;;;;;83.60;51.85;;;;;;;1.38;100.00;99604.72;5034394;28;20133;-72
2022/12/24 03:37:31;;;;;;;113.90;65.88;;;;;;;1.46;100.00;99550.47;5053754;28;20033;-70
2022/12/24 03:39:57;;;;;;;106.38;65.13;;;;;;;1.57;100.00;99622.28;5053632;28;20127;-71
2022/12/24 03:42:22;;;;;;;97.47;58.10;;;;;;;1.64;100.00;99615.63;5053902;28;20172;-70
2022/12/24 03:44:48;;;;;;;86.10;54.30;;;;;;;1.63;100.00;99593.91;5035764;28;20036;-69
2022/12/24 03:47:13;;;;;;;94.35;56.83;;;;;;;1.47;100.00;99599.72;5053062;28;20087;-70
2022/12/24 03:49:39;;;;;;;96.47;58.00;;;;;;;1.81;100.00;99615.63;5053493;28;20083;-70
2022/12/24 03:52:04;;;;;;;84.18;53.22;;;;;;;0.97;100.00;99542.00;5053032;28;20067;-70
2022/12/24 03:54:34;;;;;;;87.65;53.83;;;;;;;1.49;100.00;99603.91;5047607;28;20049;-70
2022/12/24 03:57:00;;;;;;;80.05;49.10;;;;;;;2.58;100.00;99612.25;5053216;28;20044;-68
2022/12/24 03:59:26;;;;;;;61.10;38.90;;;;;;;3.89;100.00;99524.50;5047553;28;20049;-71
2022/12/24 04:01:52;;;;;;;96.85;61.13;;;;;;;1.37;100.00;99613.88;5032129;28;20053;-69
2022/12/24 04:04:17;;;;;;;81.93;52.80;;;;;;;1.55;100.00;99630.59;5033298;28;20121;-70
2022/12/24 04:06:43;;;;;;;74.57;44.75;;;;;;;1.74;100.00;99615.63;5053029;28;20517;-69
2022/12/24 04:09:08;;;;;;;75.53;47.70;;;;;;;0.93;100.00;99549.53;5053082;28;20041;-70
2022/12/24 04:11:33;;;;;;;64.57;42.55;;;;;;;1.83;100.00;99599.75;5052973;28;20029;-69
2022/12/24 04:13:59;;;;;;;67.53;43.55;;;;;;;1.56;100.00;99592.22;5053272;28;20226;-71
2022/12/24 04:16:24;;;;;;;65.95;43.33;;;;;;;1.42;100.00;99568.84;5053172;28;20033;-70
2022/12/24 04:18:50;;;;;;;66.72;44.42;;;;;;;1.30;100.00;99528.75;5052672;28;20049;-70
2022/12/24 04:21:15;;;;;;;68.20;44.58;;;;;;;1.60;100.00;99599.75;5053675;28;20116;-70
2022/12/24 04:23:41;;;;;;;75.43;47.55;;;;;;;1.62;100.00;99625.63;5052455;28;20491;-69
2022/12/24 04:26:10;;;;;;;69.03;46.97;;;;;;;1.29;100.00;99628.03;5035111;28;20095;-70
2022/12/24 04:28:37;;;;;;;74.97;48.92;;;;;;;0.79;100.00;99572.78;5034841;28;20037;-71
2022/12/24 04:31:05;;;;;;;76.97;46.13;;;;;;;1.34;100.00;99608.03;5052746;28;20059;-70
2022/12/24 04:33:31;;;;;;;70.88;48.05;;;;;;;1.60;100.00;99627.31;5052786;28;20037;-71
2022/12/24 04:35:58;;;;;;;72.75;47.35;;;;;;;1.24;100.00;99619.69;5052943;28;20036;-70
2022/12/24 04:38:23;;;;;;;76.55;50.72;;;;;;;1.46;100.00;99601.41;5034541;28;20514;-72
2022/12/24 04:41:00;;;;;;;77.82;52.90;;;;;;;1.58;100.00;99606.44;5052758;28;20041;-71
2022/12/24 04:43:27;;;;;;;77.10;52.08;;;;;;;1.19;100.00;99591.28;5044911;28;20052;-71
2022/12/24 04:45:52;;;;;;;75.53;50.15;;;;;;;1.08;100.00;99537.88;5043682;28;20044;-72
2022/12/24 04:48:17;;;;;;;77.28;50.38;;;;;;;1.08;100.00;99547.91;5051891;28;20033;-71
2022/12/24 04:50:43;;;;;;;77.97;51.95;;;;;;;1.54;100.00;99623.94;5034373;28;20132;-70
2022/12/24 04:53:08;;;;;;;78.85;54.85;;;;;;;1.28;100.00;99608.00;5051954;28;20517;-71
2022/12/24 04:55:34;;;;;;;81.20;54.28;;;;;;;1.33;100.00;99619.72;5033878;28;20433;-71
2022/12/24 04:57:59;;;;;;;74.70;52.55;;;;;;;0.57;100.00;99482.69;5051632;28;20132;-77
2022/12/24 05:00:24;;;;;;;73.65;50.42;;;;;;;1.20;100.00;99608.00;5052398;28;20431;-70
2022/12/24 05:02:50;;;;;;;69.55;46.45;;;;;;;1.12;100.00;99578.75;5034573;28;20139;-70
2022/12/24 05:05:15;;;;;;;75.50;52.60;;;;;;;1.36;100.00;99604.72;5052005;28;20132;-71
2022/12/24 05:07:41;;;;;;;78.85;51.40;;;;;;;1.01;100.00;99586.22;5034163;28;20128;-70
2022/12/24 05:10:07;;;;;;;82.05;53.50;;;;;;;0.92;100.00;99576.19;5051372;28;20037;-71
2022/12/24 05:12:32;;;;;;;79.10;53.78;;;;;;;1.06;100.00;99617.13;5050447;28;20571;-70
2022/12/24 05:14:58;;;;;;;70.47;47.97;;;;;;;0.59;100.00;99486.88;5051659;28;20041;-71
2022/12/24 05:17:23;;;;;;;74.35;49.50;;;;;;;1.06;100.00;99559.56;5034152;28;20037;-70
2022/12/24 05:19:48;;;;;;;77.50;51.45;;;;;;;0.57;100.00;99542.69;5033788;28;20136;-71
2022/12/24 05:27:45;;;;;;;90.68;60.10;;;;;;;1.40;100.00;99613.06;5051731;28;20107;-70
2022/12/24 05:30:11;;;;;;;91.43;61.70;;;;;;;1.20;100.00;99608.00;5033243;28;20037;-70
2022/12/24 05:32:36;;;;;;;106.85;74.32;;;;;;;0.94;100.00;99559.53;5051698;28;20040;-70
2022/12/24 05:35:02;;;;;;;118.00;75.78;;;;;;;1.16;100.00;99566.28;5051111;28;20048;-71
2022/12/24 05:37:27;;;;;;;104.78;73.28;;;;;;;0.76;100.00;99520.28;5051539;28;20067;-72
2022/12/24 05:39:52;;;;;;;127.78;86.25;;;;;;;1.07;100.00;99566.22;5033222;28;20139;-71
2022/12/24 05:42:18;;;;;;;128.25;86.20;;;;;;;1.45;100.00;99634.75;5033401;28;20078;-71
2022/12/24 05:44:43;;;;;;;116.97;80.63;;;;;;;0.73;100.00;99524.44;5032144;28;20503;-71
2022/12/24 05:47:10;;;;;;;131.02;88.38;;;;;;;1.42;100.00;99633.94;5051486;28;20459;-71
2022/12/24 05:49:35;;;;;;;129.80;81.35;;;;;;;1.27;100.00;99562.13;5048037;28;20107;-71
2022/12/24 05:52:01;;;;;;;129.60;80.57;;;;;;;1.39;100.00;99632.25;5050998;28;20492;-71
2022/12/24 05:54:26;;;;;;;141.18;77.30;;;;;;;0.84;100.00;99548.66;5050983;28;20028;-71
2022/12/24 05:56:51;;;;;;;149.00;88.60;;;;;;;1.24;100.00;99624.69;5051183;28;20658;-71
2022/12/24 05:59:17;;;;;;;159.52;99.20;;;;;;;1.23;100.00;99640.53;5050672;28;20071;-70
2022/12/24 06:01:46;;;;;;;122.95;73.32;;;;;;;1.09;100.00;99633.81;5050842;28;20067;-72
2022/12/24 06:04:11;;;;;;;158.73;81.20;;;;;;;0.93;100.00;99577.88;5050798;28;20029;-71
2022/12/24 06:06:37;;;;;;;145.55;75.60;;;;;;;1.44;100.00;99658.16;5050764;28;20116;-71
2022/12/24 06:09:02;;;;;;;145.13;70.88;;;;;;;1.32;100.00;99647.25;5050975;28;20051;-71
2022/12/24 06:11:28;;;;;;;176.13;72.93;;;;;;;1.36;100.00;99646.44;5050848;28;20412;-72
2022/12/24 06:13:54;;;;;;;176.70;76.47;;;;;;;0.92;100.00;99587.84;5033337;28;20029;-72
2022/12/24 06:16:21;;;;;;;449.35;112.38;;;;;;;1.27;100.00;99642.22;5051094;28;20127;-72
2022/12/24 06:18:47;;;;;;;269.85;90.05;;;;;;;0.74;100.00;99573.59;5050252;28;20041;-70
2022/12/24 06:21:12;;;;;;;268.02;88.35;;;;;;;0.79;100.00;99587.81;5050424;28;20045;-71
2022/12/24 06:23:40;;;;;;;362.10;109.80;;;;;;;0.96;100.00;99647.09;5031968;28;20084;-71
2022/12/24 06:26:07;;;;;;;520.47;140.02;;;;;;;1.08;100.00;99673.00;5043324;28;20041;-77
2022/12/24 06:28:35;;;;;;;508.92;155.15;;;;;;;1.07;100.00;99665.50;5050645;28;20507;-70
2022/12/24 06:31:02;;;;;;;466.35;192.52;;;;;;;1.01;100.00;99673.78;5050508;28;20083;-69
2022/12/24 06:33:28;;;;;;;718.22;216.45;;;;;;;0.60;100.00;99637.72;5032747;28;20047;-70
2022/12/24 06:35:54;;;;;;;542.80;162.85;;;;;;;0.70;100.00;99656.94;5049073;28;20660;-70
2022/12/24 06:38:19;;;;;;;447.17;157.88;;;;;;;0.68;100.00;99571.06;5050472;28;20071;-72
2022/12/24 06:40:45;;;;;;;377.92;145.75;;;;;;;0.88;100.00;99647.91;5033610;28;20095;-69
2022/12/24 06:43:20;;;;;;;358.23;143.48;;;;;;;1.11;100.00;99658.00;5012812;28;20483;-69
2022/12/24 06:45:47;;;;;;;328.52;138.95;;;;;;;0.96;100.00;99647.09;5012650;28;20120;-69
2022/12/24 06:48:13;;;;;;;354.27;184.57;;;;;;;1.09;100.00;99639.63;5032886;28;20037;-70
2022/12/24 06:50:39;;;;;;;321.23;196.98;;;;;;;0.63;100.00;99555.22;5031675;28;20428;-69
2022/12/24 06:53:04;;;;;;;337.20;187.73;;;;;;;1.16;100.00;99630.50;5050530;28;20128;-68
2022/12/24 06:55:31;;;;;;;446.63;185.63;;;;;;;0.36;100.00;99538.41;5047180;28;20037;-69
2022/12/24 06:57:56;;;;;;;337.10;182.10;;;;;;;0.60;100.00;99558.53;5048474;28;20041;-69
2022/12/24 07:00:21;;;;;;;283.52;178.55;;;;;;;0.73;100.00;99531.94;5031573;28;20414;-71
2022/12/24 07:02:47;;;;;;;279.67;162.25;;;;;;;0.63;100.00;99563.56;5052472;28;20047;-69
2022/12/24 07:05:13;;;;;;;311.65;176.25;;;;;;;0.96;100.00;99552.03;5051566;28;20040;-72
2022/12/24 07:07:41;;;;;;;214.00;132.00;;;;;;;1.60;100.00;99603.94;5049324;28;20044;-72
2022/12/24 07:10:09;;;;;;;248.95;133.77;;;;;;;1.62;100.00;99623.09;5051552;28;20040;-71
2022/12/24 07:12:35;;;;;;;316.20;170.48;;;;;;;1.66;100.00;99597.22;5049497;28;20554;-71
2022/12/24 07:15:00;;;;;;;336.25;177.55;;;;;;;1.18;100.00;99526.22;5036135;28;20042;-71
2022/12/24 07:17:26;;;;;;;286.08;155.32;;;;;;;1.88;100.00;99617.31;5042068;28;20044;-70
2022/12/24 07:19:51;;;;;;;337.08;183.15;;;;;;;1.56;100.00;99617.28;5026351;28;20045;-69
2022/12/24 07:22:17;;;;;;;212.85;118.10;;;;;;;1.60;100.00;99564.69;5045791;28;20032;-69
2022/12/24 07:24:42;;;;;;;177.38;103.68;;;;;;;1.93;100.00;99610.63;5044445;28;20053;-70
2022/12/24 07:27:08;;;;;;;159.55;100.70;;;;;;;2.35;100.00;99600.59;5023355;28;20072;-67
2022/12/24 07:29:34;;;;;;;155.55;99.72;;;;;;;1.58;100.00;99546.34;5050665;28;20037;-69
2022/12/24 07:32:00;;;;;;;181.63;114.07;;;;;;;2.33;100.00;99622.31;5041499;28;20107;-70
2022/12/24 07:34:25;;;;;;;194.18;121.55;;;;;;;1.73;100.00;99533.81;5022606;28;20496;-70
2022/12/24 07:36:51;;;;;;;194.23;116.50;;;;;;;1.97;100.00;99557.16;5025768;28;20045;-70
2022/12/24 07:39:20;;;;;;;197.80;118.50;;;;;;;2.39;100.00;99614.78;5047227;28;20683;-69
2022/12/24 07:41:45;;;;;;;173.52;101.38;;;;;;;2.71;100.00;99612.22;5052915;28;20190;-68
2022/12/24 07:44:14;;;;;;;179.05;106.28;;;;;;;2.74;100.00;99613.03;5052620;28;20124;-69
2022/12/24 07:46:40;;;;;;;173.68;106.28;;;;;;;2.76;100.00;99638.13;5034734;28;20080;-74
2022/12/24 07:49:05;;;;;;;152.05;96.57;;;;;;;2.41;100.00;99485.22;5033343;28;20079;-68
2022/12/24 07:51:31;;;;;;;172.77;107.78;;;;;;;3.10;100.00;99602.03;5034657;28;20045;-69
2022/12/24 07:53:56;;;;;;;179.32;116.65;;;;;;;3.42;100.00;99618.66;5035197;28;20037;-71
2022/12/24 07:56:21;;;;;;;172.80;115.10;;;;;;;2.95;100.00;99572.00;5034763;28;20099;-70
2022/12/24 07:58:49;;;;;;;225.75;145.15;;;;;;;2.90;100.00;99576.19;5052942;28;20071;-70
2022/12/24 08:01:15;;;;;;;300.13;194.13;;;;;;;2.97;100.00;99635.59;5053088;28;20038;-71
2022/12/24 08:03:40;;;;;;;296.15;185.95;;;;;;;3.37;100.00;99647.97;5052862;28;20426;-73
2022/12/24 08:06:05;;;;;;;240.70;141.85;;;;;;;3.37;100.00;99602.75;5034847;28;20086;-72
2022/12/24 08:08:31;;;;;;;202.43;119.88;;;;;;;3.39;100.00;99628.69;5052360;28;20063;-70
2022/12/24 08:11:04;;;;;;;143.00;91.03;;;;;;;3.49;100.00;99629.47;5052824;28;20060;-71
2022/12/24 08:13:29;;;;;;;136.68;85.38;;;;;;;3.00;100.00;99638.06;5040976;28;20044;-69
2022/12/24 08:15:54;;;;;;;138.50;82.68;;;;;;;2.96;100.00;99559.44;5033310;28;20037;-68
2022/12/24 08:18:20;;;;;;;135.60;79.30;;;;;;;3.27;100.00;99590.22;5034527;28;20411;-71
2022/12/24 08:20:46;;;;;;;140.23;86.50;;;;;;;3.81;100.00;99636.81;5052054;28;20052;-71
2022/12/24 08:23:11;;;;;;;113.68;69.65;;;;;;;3.81;100.00;99645.22;5046635;28;20044;-72
2022/12/24 08:25:40;;;;;;;81.07;51.00;;;;;;;2.85;100.00;99558.66;5034665;28;20067;-68
2022/12/24 08:28:06;;;;;;;79.68;52.13;;;;;;;4.45;100.00;99643.03;5046825;28;20045;-71
2022/12/24 08:30:32;;;;;;;76.07;49.85;;;;;;;2.98;100.00;99562.78;5033091;28;20048;-70
2022/12/24 08:32:57;;;;;;;81.32;51.50;;;;;;;3.20;100.00;99636.31;5032753;28;20045;-70
2022/12/24 08:35:22;;;;;;;79.20;51.85;;;;;;;3.25;100.00;99596.94;5031940;28;20029;-71
2022/12/24 08:37:48;;;;;;;88.78;57.92;;;;;;;3.26;100.00;99576.88;5031769;28;20041;-70
2022/12/24 08:40:14;;;;;;;77.47;52.78;;;;;;;3.01;100.00;99617.97;5032340;28;20187;-72
2022/12/24 08:42:39;;;;;;;78.38;53.55;;;;;;;3.07;100.00;99572.75;5031446;28;20076;-71
2022/12/24 08:45:05;;;;;;;78.78;52.97;;;;;;;2.99;100.00;99578.69;5032260;28;20490;-70
2022/12/24 08:47:30;;;;;;;78.13;50.78;;;;;;;3.54;100.00;99578.34;5014208;28;20042;-72
2022/12/24 08:49:56;;;;;;;74.22;51.08;;;;;;;3.38;100.00;99558.38;5013125;28;20131;-70
2022/12/24 08:52:21;;;;;;;74.88;50.63;;;;;;;3.44;100.00;99551.66;5031778;28;20041;-70
2022/12/24 08:54:47;;;;;;;77.68;51.75;;;;;;;3.72;100.00;99629.34;5031118;28;20129;-70
2022/12/24 08:57:13;;;;;;;74.25;50.97;;;;;;;3.31;100.00;99630.41;5013809;28;20720;-70
2022/12/24 08:59:39;;;;;;;75.22;52.20;;;;;;;3.60;100.00;99630.28;5013561;28;20057;-71
2022/12/24 09:02:04;;;;;;;71.05;48.30;;;;;;;3.97;100.00;99629.19;5014334;28;20103;-70
2022/12/24 09:04:30;;;;;;;68.38;47.05;;;;;;;4.18;100.00;99605.56;5031894;28;20037;-70
2022/12/24 09:06:55;;;;;;;72.85;49.47;;;;;;;3.22;100.00;99512.44;5032128;28;20423;-70
2022/12/24 09:09:21;;;;;;;66.63;46.40;;;;;;;4.23;100.00;99631.50;5032151;28;20095;-71
2022/12/24 09:11:46;;;;;;;67.07;46.25;;;;;;;4.31;100.00;99629.75;5014594;28;20468;-71
2022/12/24 09:14:12;;;;;;;63.50;41.80;;;;;;;3.36;100.00;99558.41;5031672;28;20033;-71
2022/12/24 09:16:38;;;;;;;64.00;44.88;;;;;;;3.85;100.00;99651.03;5031474;28;20041;-71
2022/12/24 09:19:03;;;;;;;67.20;45.47;;;;;;;4.04;100.00;99629.97;5031734;28;20038;-70
2022/12/24 09:21:30;;;;;;;67.18;44.53;;;;;;;4.17;100.00;99624.00;5042981;28;20074;-69
2022/12/24 09:23:55;;;;;;;67.38;44.65;;;;;;;3.68;100.00;99552.31;5031661;28;20554;-71
2022/12/24 09:26:24;;;;;;;63.90;45.38;;;;;;;3.66;100.00;99554.84;5031020;28;20049;-71
2022/12/24 09:28:50;;;;;;;64.55;45.45;;;;;;;4.25;100.00;99584.53;5031601;28;20427;-72
2022/12/24 09:31:15;;;;;;;70.47;47.65;;;;;;;4.70;100.00;99595.81;5038716;28;20025;-71
2022/12/24 09:33:43;;;;;;;69.65;47.40;;;;;;;5.07;100.00;99623.06;5045649;28;20076;-70
2022/12/24 09:36:09;;;;;;;66.15;45.10;;;;;;;4.33;100.00;99527.41;5030649;28;20041;-72
2022/12/24 09:38:35;;;;;;;75.13;48.65;;;;;;;4.59;100.00;99560.69;5050942;28;20036;-70
2022/12/24 09:41:14;;;;;;;65.68;47.90;;;;;;;4.72;100.00;99531.16;5046817;28;20040;-71
2022/12/24 09:43:46;;;;;;;72.40;48.47;;;;;;;5.26;100.00;99601.84;5032840;28;20044;-71
2022/12/24 09:46:34;;;;;;;74.10;51.53;;;;;;;5.43;100.00;99605.84;5050819;28;20040;-70
2022/12/24 09:49:14;;;;;;;69.72;47.53;;;;;;;5.39;100.00;99601.69;5051178;28;20079;-69
2022/12/24 09:51:45;;;;;;;72.13;47.72;;;;;;;5.06;100.00;99550.06;5051094;28;20114;-68
2022/12/24 09:54:17;;;;;;;69.20;47.50;;;;;;;5.43;100.00;99605.84;5032840;28;20083;-63
2022/12/24 09:56:45;;;;;;;68.25;41.67;;;;;;;7.83;100.00;99604.78;5033396;28;20060;-71
2022/12/24 09:59:15;;;;;;;100.57;45.67;;;;;;;7.85;100.00;99587.88;5032748;28;20041;-70
2022/12/24 10:01:41;;;;;;;59.08;42.13;;;;;;;5.06;100.00;99477.84;5044639;28;20423;-69
2022/12/24 10:04:14;;;;;;;61.60;43.55;;;;;;;6.10;100.00;99602.31;5047368;28;20031;-70
2022/12/24 10:06:51;;;;;;;53.40;38.58;;;;;;;6.01;100.00;99599.13;5042927;28;20098;-70
2022/12/24 10:09:28;;;;;;;54.38;39.45;;;;;;;6.17;100.00;99613.16;5031359;28;20098;-69
2022/12/24 10:12:12;;;;;;;51.17;38.00;;;;;;;6.08;100.00;99599.00;5049762;28;20052;-68
2022/12/24 10:14:40;;;;;;;55.10;39.45;;;;;;;6.21;100.00;99616.47;5049948;28;20040;-69
2022/12/24 10:17:08;;;;;;;52.88;38.78;;;;;;;6.12;100.00;99608.19;5048691;28;20522;-69
2022/12/24 10:19:49;;;;;;;50.38;38.17;;;;;;;6.61;100.00;99609.88;5048759;28;20067;-68
2022/12/24 10:22:41;;;;;;;46.08;35.20;;;;;;;6.73;100.00;99592.81;5031842;28;20041;-69
2022/12/24 10:25:25;;;;;;;53.65;38.22;;;;;;;6.59;100.00;99597.28;5032024;28;20037;-69
2022/12/24 10:27:54;;;;;;;63.70;46.33;;;;;;;6.54;100.00;99599.03;5049780;28;20037;-67
2022/12/24 10:30:22;;;;;;;67.15;45.58;;;;;;;6.30;100.00;99533.03;5032027;28;20456;-66
2022/12/24 10:32:50;;;;;;;75.15;52.90;;;;;;;6.35;100.00;99544.69;5050151;28;20033;-68
2022/12/24 10:35:15;;;;;;;56.97;42.42;;;;;;;6.52;100.00;99608.34;5050430;28;20060;-68
2022/12/24 10:37:46;;;;;;;60.33;47.38;;;;;;;6.97;100.00;99583.94;5049463;28;20076;-69
2022/12/24 10:40:43;;;;;;;55.90;41.03;;;;;;;7.12;100.00;99593.72;5050515;28;20551;-68
2022/12/24 10:43:20;;;;;;;56.33;42.67;;;;;;;6.35;100.00;99474.03;5040227;28;20048;-68
2022/12/24 10:45:58;;;;;;;61.05;42.53;;;;;;;7.06;100.00;99598.88;5050005;28;20524;-68
2022/12/24 10:48:32;;;;;;;58.40;43.22;;;;;;;6.62;100.00;99511.34;5050527;28;20048;-68
2022/12/24 10:51:02;;;;;;;56.33;41.70;;;;;;;6.93;100.00;99504.00;5049756;28;20047;-69
2022/12/24 10:53:50;;;;;;;53.00;41.00;;;;;;;7.16;100.00;99537.19;5050365;28;20040;-68
2022/12/24 10:56:18;;;;;;;53.95;39.42;;;;;;;7.21;100.00;99527.78;5050183;28;20033;-69
2022/12/24 10:58:49;;;;;;;52.88;38.22;;;;;;;7.45;100.00;99507.03;5049213;28;20053;-69
2022/12/24 11:01:14;;;;;;;58.67;41.65;;;;;;;7.96;100.00;99559.78;5050325;28;20518;-71
2022/12/24 11:03:41;;;;;;;66.65;49.35;;;;;;;7.23;100.00;99459.53;5049742;28;20036;-68
2022/12/24 11:06:09;;;;;;;58.17;42.92;;;;;;;8.08;100.00;99588.16;5031571;28;20098;-71
2022/12/24 11:08:38;;;;;;;51.72;39.78;;;;;;;7.90;100.00;99512.69;5049255;28;20040;-71
2022/12/24 11:11:07;;;;;;;52.67;41.05;;;;;;;7.71;100.00;99511.47;5049145;28;20033;-69
2022/12/24 11:13:38;;;;;;;53.03;41.15;;;;;;;8.01;100.00;99579.06;5048581;28;20083;-71
2022/12/24 11:16:24;;;;;;;51.73;40.37;;;;;;;7.97;100.00;99548.78;5031872;28;20033;-70
2022/12/24 11:18:52;;;;;;;53.38;40.75;;;;;;;8.57;100.00;99555.72;5048091;28;20048;-74
2022/12/24 11:21:39;;;;;;;57.63;41.60;;;;;;;8.42;100.00;99550.19;5040862;28;20104;-76
2022/12/24 11:24:10;;;;;;;76.05;57.47;;;;;;;8.22;100.00;99568.41;5038856;28;20038;-73
2022/12/24 11:26:36;;;;;;;62.65;45.92;;;;;;;7.86;100.00;99509.41;5030755;28;20041;-74
2022/12/24 11:29:20;;;;;;;65.03;49.63;;;;;;;8.14;100.00;99574.53;5039514;28;20415;-74
2022/12/24 11:31:47;;;;;;;76.30;58.60;;;;;;;7.61;100.00;99484.72;5047631;28;20066;-85